createdAt,value
2022-09-13T00:02:08.476Z,98771.59
2022-09-13T00:04:41.525Z,98767.20
2022-09-13T00:07:15.061Z,98756.20
2022-09-13T00:09:47.822Z,98753.56
2022-09-13T00:12:20.690Z,98748.72
2022-09-13T00:14:53.807Z,98748.72
2022-09-13T00:17:28.574Z,98744.72
2022-09-13T00:20:01.291Z,98742.96
2022-09-13T00:22:34.422Z,98740.31
2022-09-13T00:25:08.586Z,98732.85
2022-09-13T00:27:40.746Z,98730.64
2022-09-13T00:30:15.060Z,98729.73
2022-09-13T00:32:47.110Z,98730.62
2022-09-13T00:35:19.831Z,98729.33
2022-09-13T00:37:52.677Z,98726.22
2022-09-13T00:40:25.725Z,98726.16
2022-09-13T00:42:58.808Z,98731.84
2022-09-13T00:45:31.714Z,98729.63
2022-09-13T00:48:08.060Z,98726.52
2022-09-13T00:50:45.409Z,98727.83
2022-09-13T00:53:24.569Z,98726.48
2022-09-13T00:56:04.598Z,98716.36
2022-09-13T00:58:47.961Z,98716.78
2022-09-13T01:01:22.296Z,98718.12
2022-09-13T01:03:55.657Z,98711.53
2022-09-13T01:06:33.188Z,98722.98
2022-09-13T01:09:06.812Z,98736.57
2022-09-13T01:11:53.745Z,98732.59
2022-09-13T01:14:26.843Z,98741.82
2022-09-13T01:17:00.241Z,98737.46
2022-09-13T01:19:34.532Z,98734.36
2022-09-13T01:22:44.603Z,98737.00
2022-09-13T01:25:54.937Z,98739.65
2022-09-13T01:28:44.649Z,98735.70
2022-09-13T01:31:34.266Z,98741.00
2022-09-13T01:34:45.939Z,98735.32
2022-09-13T01:37:41.871Z,98734.45
2022-09-13T01:40:39.951Z,98734.89
2022-09-13T01:43:29.474Z,98738.89
2022-09-13T01:46:45.069Z,98741.14
2022-09-13T01:49:35.864Z,98746.00
2022-09-13T01:52:28.710Z,98741.19
2022-09-13T01:55:19.274Z,98741.17
2022-09-13T01:58:28.508Z,98745.97
2022-09-13T02:01:16.205Z,98741.13
2022-09-13T02:04:11.116Z,98743.79
2022-09-13T02:06:49.193Z,98738.06
2022-09-13T02:09:26.072Z,98740.70
2022-09-13T02:12:03.955Z,98738.08
2022-09-13T02:14:40.175Z,98737.20
2022-09-13T02:17:20.600Z,98736.33
2022-09-13T02:20:07.369Z,98734.17
2022-09-13T02:22:47.084Z,98726.70
2022-09-13T02:25:22.315Z,98727.54
2022-09-13T02:27:59.193Z,98723.13
2022-09-13T02:30:34.777Z,98722.25
2022-09-13T02:33:27.028Z,98724.88
2022-09-13T02:36:13.511Z,98716.52
2022-09-13T02:38:57.342Z,98706.89
2022-09-13T02:41:56.299Z,98715.22
2022-09-13T02:47:37.727Z,98709.13
2022-09-13T02:50:21.161Z,98712.16
2022-09-13T02:53:31.669Z,98702.95
2022-09-13T02:56:55.644Z,98701.19
2022-09-13T02:59:30.349Z,98697.68
2022-09-13T03:02:12.801Z,98701.63
2022-09-13T03:04:45.936Z,98705.59
2022-09-13T03:07:19.031Z,98698.54
2022-09-13T03:10:04.636Z,98697.68
2022-09-13T03:13:16.202Z,98704.70
2022-09-13T03:16:28.296Z,98701.19
2022-09-13T03:19:28.976Z,98696.77
2022-09-13T03:22:27.512Z,98705.09
2022-09-13T03:25:30.393Z,98705.05
2022-09-13T03:28:27.554Z,98704.18
2022-09-13T03:31:11.551Z,98704.18
2022-09-13T03:34:07.179Z,98706.37
2022-09-13T03:36:57.043Z,98705.52
2022-09-13T03:39:49.519Z,98705.05
2022-09-13T03:42:42.148Z,98710.32
2022-09-13T03:45:17.415Z,98716.47
2022-09-13T03:47:51.191Z,98717.77
2022-09-13T03:50:25.771Z,98722.63
2022-09-13T03:53:07.639Z,98722.17
2022-09-13T03:55:44.802Z,98722.17
2022-09-13T03:58:21.158Z,98717.77
2022-09-13T04:00:55.153Z,98719.97
2022-09-13T04:03:27.808Z,98730.94
2022-09-13T04:06:01.434Z,98729.14
2022-09-13T04:08:35.004Z,98729.14
2022-09-13T04:11:09.679Z,98728.27
2022-09-13T04:13:42.868Z,98728.67
2022-09-13T04:16:15.985Z,98728.66
2022-09-13T04:18:48.997Z,98739.62
2022-09-13T04:21:22.179Z,98741.80
2022-09-13T04:23:55.127Z,98741.36
2022-09-13T04:26:27.884Z,98742.19
2022-09-13T04:29:00.959Z,98743.04
2022-09-13T04:31:33.975Z,98743.02
2022-09-13T04:34:07.506Z,98742.09
2022-09-13T04:36:40.911Z,98748.63
2022-09-13T04:39:17.352Z,98749.50
2022-09-13T04:41:52.342Z,98743.75
2022-09-13T04:44:25.735Z,98743.25
2022-09-13T04:47:00.030Z,98745.87
2022-09-13T04:49:34.282Z,98747.18
2022-09-13T04:52:07.431Z,98747.59
2022-09-13T04:54:40.934Z,98759.47
2022-09-13T04:57:13.691Z,98759.97
2022-09-13T04:59:46.565Z,98759.59
2022-09-13T05:02:19.535Z,98758.80
2022-09-13T05:04:52.559Z,98764.53
2022-09-13T05:07:25.952Z,98759.25
2022-09-13T05:09:58.855Z,98758.84
2022-09-13T05:12:32.244Z,98765.44
2022-09-13T05:15:07.046Z,98761.12
2022-09-13T05:17:40.231Z,98765.50
2022-09-13T05:20:13.238Z,98766.83
2022-09-13T05:22:46.138Z,98762.04
2022-09-13T05:25:22.990Z,98764.27
2022-09-13T05:27:55.606Z,98766.08
2022-09-13T05:30:29.105Z,98765.63
2022-09-13T05:33:01.770Z,98766.93
2022-09-13T05:35:34.687Z,98767.38
2022-09-13T05:38:08.193Z,98756.82
2022-09-13T05:40:41.248Z,98752.87
2022-09-13T05:43:15.391Z,98754.59
2022-09-13T05:45:48.417Z,98766.01
2022-09-13T05:48:21.180Z,98769.06
2022-09-13T05:50:58.321Z,98771.72
2022-09-13T05:53:28.847Z,98776.56
2022-09-13T05:56:01.968Z,98784.50
2022-09-13T05:58:36.154Z,98784.07
2022-09-13T06:01:11.202Z,98788.05
2022-09-13T06:03:44.011Z,98786.31
2022-09-13T06:06:17.456Z,98795.58
2022-09-13T06:08:54.171Z,98796.48
2022-09-13T06:11:28.198Z,98797.37
2022-09-13T06:14:01.169Z,98804.84
2022-09-13T06:16:36.000Z,98813.62
2022-09-13T06:19:09.219Z,98812.27
2022-09-13T06:21:42.475Z,98817.11
2022-09-13T06:24:15.488Z,98815.36
2022-09-13T06:26:48.334Z,98816.30
2022-09-13T06:29:21.336Z,98814.64
2022-09-13T06:31:54.738Z,98819.12
2022-09-13T06:34:31.259Z,98821.41
2022-09-13T06:37:04.409Z,98826.78
2022-09-13T06:39:37.186Z,98823.30
2022-09-13T06:42:10.651Z,98825.47
2022-09-13T06:44:46.280Z,98825.52
2022-09-13T06:47:19.458Z,98826.47
2022-09-13T06:49:52.307Z,98826.11
2022-09-13T06:52:25.857Z,98825.67
2022-09-13T06:54:59.153Z,98833.13
2022-09-13T06:57:33.254Z,98839.31
2022-09-13T07:00:07.227Z,98838.02
2022-09-13T07:02:40.641Z,98836.71
2022-09-13T07:05:13.614Z,98840.70
2022-09-13T07:07:47.727Z,98838.98
2022-09-13T07:10:20.656Z,98841.14
2022-09-13T07:12:54.021Z,98840.68
2022-09-13T07:15:26.929Z,98839.35
2022-09-13T07:18:01.020Z,98840.67
2022-09-13T07:20:34.291Z,98850.82
2022-09-13T07:23:07.069Z,98842.47
2022-09-13T07:25:40.777Z,98843.80
2022-09-13T07:28:13.586Z,98845.09
2022-09-13T07:30:46.489Z,98847.71
2022-09-13T07:33:19.440Z,98844.19
2022-09-13T07:35:57.785Z,98846.36
2022-09-13T07:38:30.608Z,98853.44
2022-09-13T07:41:06.361Z,98849.91
2022-09-13T07:43:39.501Z,98855.16
2022-09-13T07:46:16.435Z,98859.08
2022-09-13T07:48:50.639Z,98856.82
2022-09-13T07:51:26.441Z,98852.41
2022-09-13T07:54:02.499Z,98857.68
2022-09-13T07:56:38.143Z,98861.62
2022-09-13T07:59:17.019Z,98864.23
2022-09-13T08:01:52.539Z,98861.55
2022-09-13T08:04:27.568Z,98868.11
2022-09-13T08:07:01.400Z,98871.20
2022-09-13T08:09:34.496Z,98871.23
2022-09-13T08:12:07.792Z,98871.25
2022-09-13T08:14:41.094Z,98868.62
2022-09-13T08:17:14.064Z,98872.16
2022-09-13T08:19:47.127Z,98871.31
2022-09-13T08:22:20.349Z,98874.47
2022-09-13T08:24:53.097Z,98866.17
2022-09-13T08:27:25.913Z,98866.31
2022-09-13T08:29:58.829Z,98872.56
2022-09-13T08:32:32.158Z,98870.90
2022-09-13T08:35:05.602Z,98871.02
2022-09-13T08:37:38.601Z,98871.50
2022-09-13T08:40:12.131Z,98874.20
2022-09-13T08:43:19.666Z,98874.23
2022-09-13T08:46:03.102Z,98880.86
2022-09-13T08:48:44.450Z,98871.19
2022-09-13T08:51:37.958Z,98873.44
2022-09-13T08:54:14.360Z,98881.38
2022-09-13T08:56:55.225Z,98874.33
2022-09-13T08:59:56.984Z,98876.11
2022-09-13T09:02:51.766Z,98874.34
2022-09-13T09:05:29.350Z,98879.20
2022-09-13T09:08:27.407Z,98875.23
2022-09-13T09:11:05.043Z,98875.23
2022-09-13T09:13:45.201Z,98876.99
2022-09-13T09:16:51.698Z,98879.61
2022-09-13T09:19:34.027Z,98878.70
2022-09-13T09:22:19.921Z,98886.56
2022-09-13T09:25:00.137Z,98886.52
2022-09-13T09:27:34.039Z,98878.56
2022-09-13T09:30:08.006Z,98890.01
2022-09-13T09:33:00.649Z,98890.91
2022-09-13T09:35:53.560Z,98895.27
2022-09-13T09:38:43.170Z,98892.62
2022-09-13T09:41:32.862Z,98893.09
2022-09-13T09:44:28.296Z,98899.79
2022-09-13T09:47:13.961Z,98894.11
2022-09-13T09:50:12.308Z,98907.34
2022-09-13T09:53:10.775Z,98911.77
2022-09-13T09:55:52.161Z,98905.56
2022-09-13T09:58:45.709Z,98906.89
2022-09-13T10:01:36.752Z,98906.04
2022-09-13T10:04:22.476Z,98903.86
2022-09-13T10:07:15.665Z,98910.53
2022-09-13T10:09:57.398Z,98910.59
2022-09-13T10:12:39.424Z,98905.80
2022-09-13T10:15:24.972Z,98911.56
2022-09-13T10:18:42.968Z,98909.82
2022-09-13T10:21:21.503Z,98908.98
2022-09-13T10:23:57.319Z,98902.39
2022-09-13T10:26:30.231Z,98897.97
2022-09-13T10:29:10.394Z,98892.22
2022-09-13T10:31:50.208Z,98896.64
2022-09-13T10:34:30.494Z,98895.30
2022-09-13T10:37:13.637Z,98893.11
2022-09-13T10:40:12.032Z,98893.54
2022-09-13T10:42:57.459Z,98892.23
2022-09-13T10:45:33.037Z,98890.05
2022-09-13T10:48:16.038Z,98883.45
2022-09-13T10:51:09.584Z,98882.13
2022-09-13T10:53:44.473Z,98883.45
2022-09-13T10:56:27.239Z,98887.42
2022-09-13T10:59:30.388Z,98883.00
2022-09-13T11:02:38.473Z,98881.69
2022-09-13T11:05:39.188Z,98879.91
2022-09-13T11:08:31.336Z,98877.26
2022-09-13T11:11:26.864Z,98876.80
2022-09-13T11:14:22.740Z,98877.25
2022-09-13T11:17:06.626Z,98875.06
2022-09-13T11:19:57.042Z,98876.84
2022-09-13T11:22:44.091Z,98869.77
2022-09-13T11:26:04.782Z,98878.61
2022-09-13T11:29:09.183Z,98874.16
2022-09-13T11:32:07.708Z,98871.96
2022-09-13T11:35:02.687Z,98873.31
2022-09-13T11:37:49.212Z,98871.08
2022-09-13T11:40:47.597Z,98871.05
2022-09-13T11:43:37.121Z,98865.27
2022-09-13T11:46:48.101Z,98863.00
2022-09-13T11:50:13.688Z,98869.61
2022-09-13T11:53:06.259Z,98874.05
2022-09-13T11:55:58.112Z,98870.09
2022-09-13T11:58:36.231Z,98874.97
2022-09-13T12:01:12.084Z,98873.19
2022-09-13T12:03:58.379Z,98871.84
2022-09-13T12:06:47.845Z,98876.21
2022-09-13T12:09:25.474Z,98873.99
2022-09-13T12:12:12.095Z,98876.19
2022-09-13T12:14:59.269Z,98862.03
2022-09-13T12:17:57.281Z,98868.20
2022-09-13T12:20:43.671Z,98861.14
2022-09-13T12:23:36.466Z,98867.81
2022-09-13T12:26:36.844Z,98867.35
2022-09-13T12:29:32.917Z,98865.13
2022-09-13T12:32:08.742Z,98865.62
2022-09-13T12:35:08.771Z,98867.88
2022-09-13T12:37:51.920Z,98868.75
2022-09-13T12:40:52.000Z,98866.96
2022-09-13T12:43:54.630Z,98871.82
2022-09-13T12:46:37.705Z,98875.33
2022-09-13T12:49:15.151Z,98876.62
2022-09-13T12:52:19.620Z,98872.62
2022-09-13T12:55:45.796Z,98875.26
2022-09-13T12:58:32.138Z,98881.45
2022-09-13T13:01:23.534Z,98878.83
2022-09-13T13:04:06.367Z,98877.53
2022-09-13T13:06:55.319Z,98884.19
2022-09-13T13:09:33.346Z,98879.81
2022-09-13T13:12:06.984Z,98871.41
2022-09-13T13:14:47.102Z,98878.94
2022-09-13T13:17:52.553Z,98877.62
2022-09-13T13:20:49.426Z,98889.98
2022-09-13T13:23:37.788Z,98881.63
2022-09-13T13:26:55.476Z,98885.60
2022-09-13T13:29:34.305Z,98884.28
2022-09-13T13:32:12.711Z,98886.48
2022-09-13T13:34:52.936Z,98890.89
2022-09-13T13:37:32.577Z,98885.11
2022-09-13T13:40:27.237Z,98883.32
2022-09-13T13:43:27.021Z,98889.08
2022-09-13T13:46:15.928Z,98891.30
2022-09-13T13:48:49.190Z,98886.92
2022-09-13T13:51:25.856Z,98887.81
2022-09-13T13:54:03.344Z,98891.38
2022-09-13T13:56:49.956Z,98884.31
2022-09-13T13:59:28.959Z,98886.09
2022-09-13T14:02:02.270Z,98888.73
2022-09-13T14:04:55.915Z,98890.92
2022-09-13T14:07:59.263Z,98893.57
2022-09-13T14:10:43.474Z,98890.47
2022-09-13T14:13:42.182Z,98897.55
2022-09-13T14:16:31.128Z,98895.78
2022-09-13T14:19:10.342Z,98894.46
2022-09-13T14:21:43.458Z,98901.08
2022-09-13T14:24:24.738Z,98903.30
2022-09-13T14:27:04.943Z,98900.64
2022-09-13T14:29:36.366Z,98909.45
2022-09-13T14:32:15.419Z,98907.67
2022-09-13T14:34:57.402Z,98915.17
2022-09-13T14:37:33.952Z,98916.95
2022-09-13T14:40:26.956Z,98915.22
2022-09-13T14:43:00.299Z,98912.13
2022-09-13T14:45:38.155Z,98916.55
2022-09-13T14:48:26.586Z,98925.38
2022-09-13T14:51:06.961Z,98924.47
2022-09-13T14:53:41.466Z,98930.20
2022-09-13T14:56:19.418Z,98927.12
2022-09-13T14:58:56.179Z,98931.94
2022-09-13T15:01:33.790Z,98932.81
2022-09-13T15:04:07.990Z,98935.42
2022-09-13T15:06:44.254Z,98934.52
2022-09-13T15:09:28.488Z,98941.98
2022-09-13T15:12:03.075Z,98944.61
2022-09-13T15:14:39.289Z,98949.47
2022-09-13T15:17:17.433Z,98955.59
2022-09-13T15:19:59.464Z,98957.77
2022-09-13T15:22:35.775Z,98959.09
2022-09-13T15:25:28.946Z,98961.30
2022-09-13T15:28:01.981Z,98965.67
2022-09-13T15:30:40.770Z,98974.03
2022-09-13T15:33:26.808Z,98971.37
2022-09-13T15:36:18.938Z,98972.68
2022-09-13T15:39:10.621Z,98973.11
2022-09-13T15:41:59.223Z,98978.38
2022-09-13T15:44:32.988Z,98981.45
2022-09-13T15:47:10.390Z,98980.10
2022-09-13T15:49:51.067Z,98980.06
2022-09-13T15:52:25.037Z,98985.77
2022-09-13T15:54:57.922Z,98985.72
2022-09-13T15:57:32.000Z,98986.54
2022-09-13T16:00:08.065Z,98987.39
2022-09-13T16:02:43.555Z,98996.59
2022-09-13T16:05:16.833Z,98993.44
2022-09-13T16:07:49.909Z,98998.27
2022-09-13T16:10:24.670Z,99003.91
2022-09-13T16:12:57.523Z,99002.98
2022-09-13T16:15:30.750Z,99011.23
2022-09-13T16:18:03.794Z,99016.91
2022-09-13T16:20:40.266Z,99018.58
2022-09-13T16:23:13.572Z,99018.97
2022-09-13T16:25:48.120Z,99015.39
2022-09-13T16:28:21.654Z,99025.45
2022-09-13T16:30:55.293Z,99028.52
2022-09-13T16:33:28.254Z,99029.36
2022-09-13T16:36:02.543Z,99031.95
2022-09-13T16:38:35.774Z,99030.59
2022-09-13T16:41:09.892Z,99033.17
2022-09-13T16:43:43.378Z,99030.47
2022-09-13T16:46:16.681Z,99035.66
2022-09-13T16:48:57.396Z,99037.76
2022-09-13T16:51:30.739Z,99035.95
2022-09-13T16:54:03.893Z,99039.38
2022-09-13T16:56:37.073Z,99041.97
2022-09-13T16:59:10.362Z,99044.55
2022-09-13T17:01:44.384Z,99044.93
2022-09-13T17:04:19.149Z,99050.09
2022-09-13T17:06:53.264Z,99049.59
2022-09-13T17:09:28.286Z,99049.03
2022-09-13T17:12:02.412Z,99062.14
2022-09-13T17:14:36.580Z,99065.14
2022-09-13T17:17:12.045Z,99060.22
2022-09-13T17:19:46.708Z,99070.24
2022-09-13T17:22:20.870Z,99067.95
2022-09-13T17:24:54.813Z,99058.19
2022-09-13T17:27:28.935Z,99068.22
2022-09-13T17:30:04.267Z,99064.58
2022-09-13T17:32:38.397Z,99061.87
2022-09-13T17:35:13.318Z,99060.96
2022-09-13T17:37:48.759Z,99070.48
2022-09-13T17:40:22.569Z,99074.30
2022-09-13T17:42:56.541Z,99075.48
2022-09-13T17:45:30.511Z,99070.57
2022-09-13T17:48:05.448Z,99067.03
2022-09-13T17:50:39.657Z,99065.22
2022-09-13T17:53:14.329Z,99066.48
2022-09-13T17:55:55.829Z,99057.22
2022-09-13T17:58:29.862Z,99065.08
2022-09-13T18:01:09.442Z,99066.31
2022-09-13T18:03:43.912Z,99061.43
2022-09-13T18:06:18.434Z,99066.19
2022-09-13T18:08:55.856Z,99068.33
2022-09-13T18:11:29.961Z,99063.44
2022-09-13T18:14:06.920Z,99062.47
2022-09-13T18:16:43.145Z,99066.36
2022-09-13T18:19:16.411Z,99057.53
2022-09-13T18:21:50.582Z,99060.95
2022-09-13T18:24:24.594Z,99062.64
2022-09-13T18:26:58.503Z,99062.14
2022-09-13T18:29:34.356Z,99065.20
2022-09-13T18:32:11.100Z,99066.96
2022-09-13T18:34:45.425Z,99065.65
2022-09-13T18:37:19.254Z,99070.41
2022-09-13T18:39:53.847Z,99069.47
2022-09-13T18:42:32.734Z,99065.42
2022-09-13T18:45:02.921Z,99068.84
2022-09-13T18:47:37.402Z,99070.93
2022-09-13T18:50:12.042Z,99073.90
2022-09-13T18:52:46.593Z,99075.55
2022-09-13T18:55:20.376Z,99072.45
2022-09-13T18:57:55.127Z,99074.58
2022-09-13T19:00:29.753Z,99074.98
2022-09-13T19:03:12.329Z,99074.00
2022-09-13T19:05:40.360Z,99080.50
2022-09-13T19:08:14.649Z,99081.75
2022-09-13T19:10:50.099Z,99077.30
2022-09-13T19:13:25.737Z,99074.61
2022-09-13T19:16:03.803Z,99070.13
2022-09-13T19:18:42.986Z,99073.16
2022-09-13T19:21:19.075Z,99069.98
2022-09-13T19:23:59.950Z,99068.53
2022-09-13T19:26:34.904Z,99075.35
2022-09-13T19:29:15.271Z,99069.11
2022-09-13T19:31:50.808Z,99070.35
2022-09-13T19:34:25.635Z,99074.66
2022-09-13T19:36:59.677Z,99071.52
2022-09-13T19:39:33.591Z,99068.86
2022-09-13T19:42:08.224Z,99071.92
2022-09-13T19:44:46.935Z,99072.76
2022-09-13T19:49:56.799Z,99080.67
2022-09-13T19:52:30.299Z,99077.25
2022-09-13T19:55:03.795Z,99077.72
2022-09-13T19:57:37.994Z,99075.61
2022-09-13T20:00:16.839Z,99075.68
2022-09-13T20:02:51.057Z,99078.81
2022-09-13T20:05:28.032Z,99077.50
2022-09-13T20:07:59.576Z,99071.81
2022-09-13T20:10:33.097Z,99078.78
2022-09-13T20:13:06.414Z,99074.77
2022-09-13T20:15:40.975Z,99075.53
2022-09-13T20:18:15.818Z,99078.05
2022-09-13T20:20:48.909Z,99074.00
2022-09-13T20:23:23.201Z,99073.92
2022-09-13T20:25:56.022Z,99076.84
2022-09-13T20:28:29.264Z,99079.82
2022-09-13T20:31:02.623Z,99078.00
2022-09-13T20:33:36.516Z,99085.80
2022-09-13T20:36:13.768Z,99073.95
2022-09-13T20:38:49.970Z,99079.63
2022-09-13T20:41:24.013Z,99079.98
2022-09-13T20:43:58.773Z,99077.64
2022-09-13T20:46:32.048Z,99082.38
2022-09-13T20:49:05.816Z,99085.84
2022-09-13T20:51:38.794Z,99096.30
2022-09-13T20:54:13.742Z,99101.10
2022-09-13T20:56:46.556Z,99091.88
2022-09-13T20:59:20.443Z,99093.59
2022-09-13T21:01:53.393Z,99097.05
2022-09-13T21:04:26.461Z,99095.61
2022-09-13T21:07:17.185Z,99092.03
2022-09-13T21:09:50.171Z,99096.80
2022-09-13T21:12:24.678Z,99089.64
2022-09-13T21:14:57.582Z,99095.72
2022-09-13T21:17:30.591Z,99092.14
2022-09-13T21:20:04.350Z,99101.20
2022-09-13T21:22:37.968Z,99107.63
2022-09-13T21:25:11.548Z,99106.66
2022-09-13T21:27:47.028Z,99110.59
2022-09-13T21:30:20.007Z,99109.72
2022-09-13T21:32:52.986Z,99106.63
2022-09-13T21:35:25.942Z,99102.20
2022-09-13T21:37:58.691Z,99106.97
2022-09-13T21:40:32.833Z,99105.22
2022-09-13T21:43:05.629Z,99106.13
2022-09-13T21:45:38.481Z,99114.45
2022-09-13T21:48:11.413Z,99107.45
2022-09-13T21:50:46.270Z,99111.69
2022-09-13T21:53:19.350Z,99115.41
2022-09-13T21:55:52.497Z,99116.09
2022-09-13T21:58:25.352Z,99111.47
2022-09-13T22:01:07.835Z,99112.64
2022-09-13T22:03:43.343Z,99113.46
2022-09-13T22:06:17.246Z,99111.23
2022-09-13T22:08:54.132Z,99112.06
2022-09-13T22:11:33.967Z,99107.07
2022-09-13T22:14:09.642Z,99111.73
2022-09-13T22:16:45.694Z,99125.67
2022-09-13T22:19:27.359Z,99116.84
2022-09-13T22:22:01.719Z,99118.98
2022-09-13T22:24:35.494Z,99118.54
2022-09-13T22:27:08.865Z,99120.16
2022-09-13T22:29:43.354Z,99117.87
2022-09-13T22:32:16.574Z,99120.83
2022-09-13T22:34:49.504Z,99114.62
2022-09-13T22:37:22.249Z,99114.89
2022-09-13T22:39:54.995Z,99117.36
2022-09-13T22:42:27.820Z,99113.82
2022-09-13T22:45:00.975Z,99115.56
2022-09-13T22:47:34.937Z,99119.89
2022-09-13T22:50:08.700Z,99114.65
2022-09-13T22:52:41.439Z,99111.10
2022-09-13T22:55:14.214Z,99115.80
2022-09-13T22:57:47.038Z,99112.17
2022-09-13T23:00:19.953Z,99115.17
2022-09-13T23:02:52.690Z,99109.01
2022-09-13T23:05:26.212Z,99101.59
2022-09-13T23:08:00.135Z,99104.27
2022-09-13T23:10:34.081Z,99105.08
2022-09-13T23:13:06.660Z,99098.98
2022-09-13T23:15:41.402Z,99101.59
2022-09-13T23:18:14.581Z,99093.20
2022-09-13T23:20:50.645Z,99094.81
2022-09-13T23:23:23.784Z,99086.55
2022-09-13T23:25:57.006Z,99090.88
2022-09-13T23:28:31.368Z,99098.62
2022-09-13T23:31:20.343Z,99091.12
2022-09-13T23:33:56.587Z,99094.17
2022-09-13T23:36:36.534Z,99098.19
2022-09-13T23:39:14.301Z,99095.19
2022-09-13T23:41:49.662Z,99093.45
2022-09-13T23:44:22.419Z,99099.70
2022-09-13T23:46:55.249Z,99099.65
2022-09-13T23:49:28.174Z,99105.28
2022-09-13T23:52:02.025Z,99103.63
2022-09-13T23:54:35.536Z,99108.91
2022-09-13T23:57:08.289Z,99111.20
2022-09-13T23:59:41.250Z,99113.96
